sensor_id;sensor_type;location;lat;lon;timestamp;P1;durP1;ratioP1;P2;durP2;ratioP2
18376;SDS011;9315;52.624;13.544;2024-03-06T00:01:10;20.27;;;11.30;;
18376;SDS011;9315;52.624;13.544;2024-03-06T00:03:37;19.10;;;12.03;;
18376;SDS011;9315;52.624;13.544;2024-03-06T00:06:04;21.30;;;12.27;;
18376;SDS011;9315;52.624;13.544;2024-03-06T00:08:32;18.90;;;11.07;;
18376;SDS011;9315;52.624;13.544;2024-03-06T00:11:00;16.63;;;11.07;;
18376;SDS011;9315;52.624;13.544;2024-03-06T00:13:28;16.87;;;11.63;;
18376;SDS011;9315;52.624;13.544;2024-03-06T00:15:57;19.37;;;11.57;;
18376;SDS011;9315;52.624;13.544;2024-03-06T00:18:24;18.03;;;11.43;;
18376;SDS011;9315;52.624;13.544;2024-03-06T00:20:51;18.23;;;11.53;;
18376;SDS011;9315;52.624;13.544;2024-03-06T00:23:19;22.63;;;12.40;;
18376;SDS011;9315;52.624;13.544;2024-03-06T00:25:47;19.97;;;12.23;;
18376;SDS011;9315;52.624;13.544;2024-03-06T00:28:14;16.97;;;11.40;;
18376;SDS011;9315;52.624;13.544;2024-03-06T00:30:41;18.73;;;11.77;;
18376;SDS011;9315;52.624;13.544;2024-03-06T00:33:09;19.20;;;12.03;;
18376;SDS011;9315;52.624;13.544;2024-03-06T00:35:36;21.63;;;12.70;;
18376;SDS011;9315;52.624;13.544;2024-03-06T00:38:04;20.13;;;12.77;;
18376;SDS011;9315;52.624;13.544;2024-03-06T00:40:33;25.80;;;12.67;;
18376;SDS011;9315;52.624;13.544;2024-03-06T00:43:00;22.57;;;12.80;;
18376;SDS011;9315;52.624;13.544;2024-03-06T00:45:27;21.20;;;12.53;;
18376;SDS011;9315;52.624;13.544;2024-03-06T00:47:55;21.23;;;12.97;;
18376;SDS011;9315;52.624;13.544;2024-03-06T00:50:24;22.10;;;13.00;;
18376;SDS011;9315;52.624;13.544;2024-03-06T00:52:51;25.23;;;13.67;;
18376;SDS011;9315;52.624;13.544;2024-03-06T00:55:18;20.07;;;12.77;;
18376;SDS011;9315;52.624;13.544;2024-03-06T00:57:46;22.77;;;12.87;;
18376;SDS011;9315;52.624;13.544;2024-03-06T01:00:13;24.80;;;14.33;;
18376;SDS011;9315;52.624;13.544;2024-03-06T01:02:42;23.07;;;13.40;;
18376;SDS011;9315;52.624;13.544;2024-03-06T01:05:10;25.77;;;13.80;;
18376;SDS011;9315;52.624;13.544;2024-03-06T01:07:37;24.40;;;13.93;;
18376;SDS011;9315;52.624;13.544;2024-03-06T01:10:06;24.90;;;14.73;;
18376;SDS011;9315;52.624;13.544;2024-03-06T01:12:35;23.13;;;13.53;;
18376;SDS011;9315;52.624;13.544;2024-03-06T01:15:04;21.60;;;13.33;;
18376;SDS011;9315;52.624;13.544;2024-03-06T01:17:34;23.37;;;13.27;;
18376;SDS011;9315;52.624;13.544;2024-03-06T01:20:01;20.93;;;13.10;;
18376;SDS011;9315;52.624;13.544;2024-03-06T01:22:33;22.87;;;13.37;;
18376;SDS011;9315;52.624;13.544;2024-03-06T01:25:01;25.27;;;13.83;;
18376;SDS011;9315;52.624;13.544;2024-03-06T01:27:31;23.40;;;13.40;;
18376;SDS011;9315;52.624;13.544;2024-03-06T01:29:58;22.60;;;13.47;;
18376;SDS011;9315;52.624;13.544;2024-03-06T01:32:26;24.67;;;14.03;;
18376;SDS011;9315;52.624;13.544;2024-03-06T01:34:53;24.80;;;12.90;;
18376;SDS011;9315;52.624;13.544;2024-03-06T01:37:21;21.00;;;12.47;;
18376;SDS011;9315;52.624;13.544;2024-03-06T01:39:48;21.13;;;12.93;;
18376;SDS011;9315;52.624;13.544;2024-03-06T01:42:16;21.43;;;12.90;;
18376;SDS011;9315;52.624;13.544;2024-03-06T01:44:44;22.97;;;13.33;;
18376;SDS011;9315;52.624;13.544;2024-03-06T01:47:12;25.03;;;14.70;;
18376;SDS011;9315;52.624;13.544;2024-03-06T01:49:40;24.53;;;13.47;;
18376;SDS011;9315;52.624;13.544;2024-03-06T01:52:12;27.13;;;13.60;;
18376;SDS011;9315;52.624;13.544;2024-03-06T01:54:43;25.03;;;13.47;;
18376;SDS011;9315;52.624;13.544;2024-03-06T01:57:12;26.07;;;13.80;;
18376;SDS011;9315;52.624;13.544;2024-03-06T01:59:42;26.27;;;13.20;;
18376;SDS011;9315;52.624;13.544;2024-03-06T02:02:10;22.73;;;13.70;;
18376;SDS011;9315;52.624;13.544;2024-03-06T02:04:38;24.90;;;14.17;;
18376;SDS011;9315;52.624;13.544;2024-03-06T02:07:08;22.10;;;12.43;;
18376;SDS011;9315;52.624;13.544;2024-03-06T02:09:39;22.77;;;13.03;;
18376;SDS011;9315;52.624;13.544;2024-03-06T02:12:07;22.67;;;12.37;;
18376;SDS011;9315;52.624;13.544;2024-03-06T02:14:35;19.33;;;11.33;;
18376;SDS011;9315;52.624;13.544;2024-03-06T02:17:03;21.23;;;12.43;;
18376;SDS011;9315;52.624;13.544;2024-03-06T02:19:38;22.90;;;12.50;;
18376;SDS011;9315;52.624;13.544;2024-03-06T02:22:10;25.27;;;12.17;;
18376;SDS011;9315;52.624;13.544;2024-03-06T02:24:40;21.57;;;12.20;;
18376;SDS011;9315;52.624;13.544;2024-03-06T02:27:12;23.50;;;13.23;;
18376;SDS011;9315;52.624;13.544;2024-03-06T02:29:39;24.83;;;13.17;;
18376;SDS011;9315;52.624;13.544;2024-03-06T02:32:07;22.93;;;12.87;;
18376;SDS011;9315;52.624;13.544;2024-03-06T02:34:35;24.70;;;12.83;;
18376;SDS011;9315;52.624;13.544;2024-03-06T02:37:02;24.57;;;13.00;;
18376;SDS011;9315;52.624;13.544;2024-03-06T02:39:30;24.47;;;13.10;;
18376;SDS011;9315;52.624;13.544;2024-03-06T02:41:57;30.33;;;15.17;;
18376;SDS011;9315;52.624;13.544;2024-03-06T02:44:24;27.20;;;12.73;;
18376;SDS011;9315;52.624;13.544;2024-03-06T02:46:52;21.97;;;12.80;;
18376;SDS011;9315;52.624;13.544;2024-03-06T02:49:20;24.73;;;13.00;;
18376;SDS011;9315;52.624;13.544;2024-03-06T02:51:47;26.63;;;13.37;;
18376;SDS011;9315;52.624;13.544;2024-03-06T02:54:15;27.00;;;13.63;;
18376;SDS011;9315;52.624;13.544;2024-03-06T02:56:42;24.07;;;13.57;;
18376;SDS011;9315;52.624;13.544;2024-03-06T02:59:10;27.47;;;14.27;;
18376;SDS011;9315;52.624;13.544;2024-03-06T03:01:37;23.87;;;13.50;;
18376;SDS011;9315;52.624;13.544;2024-03-06T03:04:05;24.10;;;13.77;;
18376;SDS011;9315;52.624;13.544;2024-03-06T03:06:34;25.40;;;13.73;;
18376;SDS011;9315;52.624;13.544;2024-03-06T03:09:01;26.63;;;13.63;;
18376;SDS011;9315;52.624;13.544;2024-03-06T03:11:30;28.13;;;14.30;;
18376;SDS011;9315;52.624;13.544;2024-03-06T03:13:58;22.90;;;13.40;;
18376;SDS011;9315;52.624;13.544;2024-03-06T03:16:26;25.13;;;13.73;;
18376;SDS011;9315;52.624;13.544;2024-03-06T03:18:53;24.03;;;13.30;;
18376;SDS011;9315;52.624;13.544;2024-03-06T03:21:21;24.30;;;13.40;;
18376;SDS011;9315;52.624;13.544;2024-03-06T03:23:48;29.13;;;14.93;;
18376;SDS011;9315;52.624;13.544;2024-03-06T03:26:16;33.93;;;16.10;;
18376;SDS011;9315;52.624;13.544;2024-03-06T03:28:43;27.37;;;14.47;;
18376;SDS011;9315;52.624;13.544;2024-03-06T03:31:11;30.30;;;15.40;;
18376;SDS011;9315;52.624;13.544;2024-03-06T03:33:39;22.23;;;12.90;;
18376;SDS011;9315;52.624;13.544;2024-03-06T03:36:08;27.97;;;13.93;;
18376;SDS011;9315;52.624;13.544;2024-03-06T03:38:37;25.27;;;13.60;;
18376;SDS011;9315;52.624;13.544;2024-03-06T03:41:08;28.17;;;14.53;;
18376;SDS011;9315;52.624;13.544;2024-03-06T03:43:39;27.70;;;14.73;;
18376;SDS011;9315;52.624;13.544;2024-03-06T03:46:08;29.90;;;15.50;;
18376;SDS011;9315;52.624;13.544;2024-03-06T03:48:36;26.87;;;14.67;;
18376;SDS011;9315;52.624;13.544;2024-03-06T03:51:04;29.73;;;15.10;;
18376;SDS011;9315;52.624;13.544;2024-03-06T03:53:34;25.40;;;13.77;;
18376;SDS011;9315;52.624;13.544;2024-03-06T03:56:02;29.00;;;14.40;;
18376;SDS011;9315;52.624;13.544;2024-03-06T03:58:30;33.53;;;15.93;;
18376;SDS011;9315;52.624;13.544;2024-03-06T04:00:58;30.50;;;15.47;;
18376;SDS011;9315;52.624;13.544;2024-03-06T04:03:26;29.43;;;14.50;;
18376;SDS011;9315;52.624;13.544;2024-03-06T04:05:53;27.03;;;14.73;;
18376;SDS011;9315;52.624;13.544;2024-03-06T04:08:21;30.00;;;15.03;;
18376;SDS011;9315;52.624;13.544;2024-03-06T04:10:50;32.57;;;14.10;;
18376;SDS011;9315;52.624;13.544;2024-03-06T04:13:17;26.80;;;14.10;;
18376;SDS011;9315;52.624;13.544;2024-03-06T04:15:47;29.93;;;14.93;;
18376;SDS011;9315;52.624;13.544;2024-03-06T04:18:14;28.10;;;14.23;;
18376;SDS011;9315;52.624;13.544;2024-03-06T04:20:42;24.07;;;13.73;;
18376;SDS011;9315;52.624;13.544;2024-03-06T04:23:09;29.00;;;13.37;;
18376;SDS011;9315;52.624;13.544;2024-03-06T04:25:37;29.20;;;14.00;;
18376;SDS011;9315;52.624;13.544;2024-03-06T04:28:07;28.90;;;14.57;;
18376;SDS011;9315;52.624;13.544;2024-03-06T04:30:36;34.50;;;14.97;;
18376;SDS011;9315;52.624;13.544;2024-03-06T04:33:03;30.90;;;15.27;;
18376;SDS011;9315;52.624;13.544;2024-03-06T04:35:31;32.30;;;16.23;;
18376;SDS011;9315;52.624;13.544;2024-03-06T04:37:59;34.50;;;17.03;;
18376;SDS011;9315;52.624;13.544;2024-03-06T04:40:30;33.30;;;16.13;;
18376;SDS011;9315;52.624;13.544;2024-03-06T04:42:58;33.10;;;16.07;;
18376;SDS011;9315;52.624;13.544;2024-03-06T04:45:25;34.07;;;16.40;;
18376;SDS011;9315;52.624;13.544;2024-03-06T04:47:53;28.67;;;13.67;;
18376;SDS011;9315;52.624;13.544;2024-03-06T04:50:21;28.10;;;14.50;;
18376;SDS011;9315;52.624;13.544;2024-03-06T04:52:49;26.73;;;14.60;;
18376;SDS011;9315;52.624;13.544;2024-03-06T04:55:17;31.33;;;15.73;;
18376;SDS011;9315;52.624;13.544;2024-03-06T04:57:49;28.57;;;15.40;;
18376;SDS011;9315;52.624;13.544;2024-03-06T05:00:18;27.90;;;14.17;;
18376;SDS011;9315;52.624;13.544;2024-03-06T05:02:46;31.07;;;15.50;;
18376;SDS011;9315;52.624;13.544;2024-03-06T05:05:29;33.77;;;16.00;;
18376;SDS011;9315;52.624;13.544;2024-03-06T05:08:10;32.23;;;16.57;;
18376;SDS011;9315;52.624;13.544;2024-03-06T05:10:51;33.20;;;16.33;;
18376;SDS011;9315;52.624;13.544;2024-03-06T05:13:32;31.77;;;15.47;;
18376;SDS011;9315;52.624;13.544;2024-03-06T05:16:14;34.60;;;16.53;;
18376;SDS011;9315;52.624;13.544;2024-03-06T05:18:55;37.97;;;18.07;;
18376;SDS011;9315;52.624;13.544;2024-03-06T05:21:36;38.43;;;17.90;;
18376;SDS011;9315;52.624;13.544;2024-03-06T05:24:17;37.47;;;18.13;;
18376;SDS011;9315;52.624;13.544;2024-03-06T05:26:58;38.57;;;17.73;;
18376;SDS011;9315;52.624;13.544;2024-03-06T05:29:39;39.90;;;18.83;;
18376;SDS011;9315;52.624;13.544;2024-03-06T05:32:20;40.87;;;17.47;;
18376;SDS011;9315;52.624;13.544;2024-03-06T05:35:01;39.57;;;16.93;;
18376;SDS011;9315;52.624;13.544;2024-03-06T05:37:42;42.20;;;19.47;;
18376;SDS011;9315;52.624;13.544;2024-03-06T05:40:23;38.60;;;17.50;;
18376;SDS011;9315;52.624;13.544;2024-03-06T05:43:04;37.27;;;17.90;;
18376;SDS011;9315;52.624;13.544;2024-03-06T05:45:45;40.37;;;18.77;;
18376;SDS011;9315;52.624;13.544;2024-03-06T05:48:26;38.07;;;17.73;;
18376;SDS011;9315;52.624;13.544;2024-03-06T05:51:07;40.37;;;17.23;;
18376;SDS011;9315;52.624;13.544;2024-03-06T05:53:49;32.20;;;16.07;;
18376;SDS011;9315;52.624;13.544;2024-03-06T05:56:30;37.37;;;18.47;;
18376;SDS011;9315;52.624;13.544;2024-03-06T05:59:11;37.20;;;18.40;;
18376;SDS011;9315;52.624;13.544;2024-03-06T06:01:39;39.67;;;19.13;;
18376;SDS011;9315;52.624;13.544;2024-03-06T06:04:08;37.20;;;18.13;;
18376;SDS011;9315;52.624;13.544;2024-03-06T06:06:36;44.50;;;19.87;;
18376;SDS011;9315;52.624;13.544;2024-03-06T06:09:04;40.73;;;18.70;;
18376;SDS011;9315;52.624;13.544;2024-03-06T06:11:32;38.77;;;18.77;;
18376;SDS011;9315;52.624;13.544;2024-03-06T06:14:01;35.63;;;18.83;;
18376;SDS011;9315;52.624;13.544;2024-03-06T06:16:34;40.13;;;19.47;;
18376;SDS011;9315;52.624;13.544;2024-03-06T06:19:07;51.43;;;20.33;;
18376;SDS011;9315;52.624;13.544;2024-03-06T06:21:35;41.57;;;18.80;;
18376;SDS011;9315;52.624;13.544;2024-03-06T06:24:04;41.27;;;19.67;;
18376;SDS011;9315;52.624;13.544;2024-03-06T06:26:32;36.80;;;18.20;;
18376;SDS011;9315;52.624;13.544;2024-03-06T06:29:00;38.37;;;18.60;;
18376;SDS011;9315;52.624;13.544;2024-03-06T06:31:27;37.13;;;17.93;;
18376;SDS011;9315;52.624;13.544;2024-03-06T06:33:55;34.53;;;18.07;;
18376;SDS011;9315;52.624;13.544;2024-03-06T06:36:24;35.17;;;17.87;;
18376;SDS011;9315;52.624;13.544;2024-03-06T06:38:53;40.17;;;18.77;;
18376;SDS011;9315;52.624;13.544;2024-03-06T06:41:20;34.63;;;17.20;;
18376;SDS011;9315;52.624;13.544;2024-03-06T06:43:49;38.77;;;19.57;;
18376;SDS011;9315;52.624;13.544;2024-03-06T06:46:19;43.33;;;20.57;;
18376;SDS011;9315;52.624;13.544;2024-03-06T06:48:47;42.23;;;19.57;;
18376;SDS011;9315;52.624;13.544;2024-03-06T06:51:15;41.30;;;19.03;;
18376;SDS011;9315;52.624;13.544;2024-03-06T06:53:43;36.37;;;18.53;;
18376;SDS011;9315;52.624;13.544;2024-03-06T06:56:10;36.17;;;18.40;;
18376;SDS011;9315;52.624;13.544;2024-03-06T06:58:38;37.90;;;18.60;;
18376;SDS011;9315;52.624;13.544;2024-03-06T07:01:09;34.77;;;17.53;;
18376;SDS011;9315;52.624;13.544;2024-03-06T07:03:37;34.37;;;17.23;;
18376;SDS011;9315;52.624;13.544;2024-03-06T07:06:04;39.73;;;18.67;;
18376;SDS011;9315;52.624;13.544;2024-03-06T07:08:32;33.27;;;17.40;;
18376;SDS011;9315;52.624;13.544;2024-03-06T07:11:00;34.87;;;17.77;;
18376;SDS011;9315;52.624;13.544;2024-03-06T07:13:28;32.00;;;18.37;;
18376;SDS011;9315;52.624;13.544;2024-03-06T07:15:55;34.37;;;18.10;;
18376;SDS011;9315;52.624;13.544;2024-03-06T07:18:23;31.93;;;17.50;;
18376;SDS011;9315;52.624;13.544;2024-03-06T07:20:51;35.47;;;16.27;;
18376;SDS011;9315;52.624;13.544;2024-03-06T07:23:19;30.90;;;16.90;;
18376;SDS011;9315;52.624;13.544;2024-03-06T07:25:47;35.07;;;17.80;;
18376;SDS011;9315;52.624;13.544;2024-03-06T07:28:14;27.23;;;15.37;;
18376;SDS011;9315;52.624;13.544;2024-03-06T07:30:43;29.47;;;17.27;;
18376;SDS011;9315;52.624;13.544;2024-03-06T07:33:10;30.30;;;16.93;;
18376;SDS011;9315;52.624;13.544;2024-03-06T07:35:39;30.03;;;16.10;;
18376;SDS011;9315;52.624;13.544;2024-03-06T07:38:10;32.03;;;16.73;;
18376;SDS011;9315;52.624;13.544;2024-03-06T07:40:37;27.67;;;16.27;;
18376;SDS011;9315;52.624;13.544;2024-03-06T07:43:05;26.90;;;15.70;;
18376;SDS011;9315;52.624;13.544;2024-03-06T07:45:32;24.77;;;14.73;;
18376;SDS011;9315;52.624;13.544;2024-03-06T07:48:01;29.97;;;15.80;;
18376;SDS011;9315;52.624;13.544;2024-03-06T07:50:29;27.07;;;15.23;;
18376;SDS011;9315;52.624;13.544;2024-03-06T07:52:57;26.60;;;14.20;;
18376;SDS011;9315;52.624;13.544;2024-03-06T07:55:24;27.23;;;15.17;;
18376;SDS011;9315;52.624;13.544;2024-03-06T07:57:51;23.93;;;14.03;;
18376;SDS011;9315;52.624;13.544;2024-03-06T08:00:19;24.77;;;13.67;;
18376;SDS011;9315;52.624;13.544;2024-03-06T08:02:47;25.50;;;14.80;;
18376;SDS011;9315;52.624;13.544;2024-03-06T08:05:17;23.83;;;14.77;;
18376;SDS011;9315;52.624;13.544;2024-03-06T08:07:45;23.60;;;14.60;;
18376;SDS011;9315;52.624;13.544;2024-03-06T08:10:13;22.03;;;13.73;;
18376;SDS011;9315;52.624;13.544;2024-03-06T08:12:41;20.03;;;13.03;;
18376;SDS011;9315;52.624;13.544;2024-03-06T08:15:10;19.83;;;12.33;;
18376;SDS011;9315;52.624;13.544;2024-03-06T08:17:40;23.73;;;13.37;;
18376;SDS011;9315;52.624;13.544;2024-03-06T08:20:11;20.70;;;13.47;;
18376;SDS011;9315;52.624;13.544;2024-03-06T08:22:40;19.17;;;12.53;;
18376;SDS011;9315;52.624;13.544;2024-03-06T08:25:09;21.17;;;12.47;;
18376;SDS011;9315;52.624;13.544;2024-03-06T08:27:40;19.13;;;12.13;;
18376;SDS011;9315;52.624;13.544;2024-03-06T08:30:10;20.27;;;11.77;;
18376;SDS011;9315;52.624;13.544;2024-03-06T08:32:38;18.53;;;12.07;;
18376;SDS011;9315;52.624;13.544;2024-03-06T08:35:09;20.53;;;13.07;;
18376;SDS011;9315;52.624;13.544;2024-03-06T08:37:44;19.40;;;12.40;;
18376;SDS011;9315;52.624;13.544;2024-03-06T08:40:11;21.53;;;12.90;;
18376;SDS011;9315;52.624;13.544;2024-03-06T08:42:41;19.83;;;12.23;;
18376;SDS011;9315;52.624;13.544;2024-03-06T08:45:20;18.07;;;11.23;;
18376;SDS011;9315;52.624;13.544;2024-03-06T08:47:48;20.47;;;13.10;;
18376;SDS011;9315;52.624;13.544;2024-03-06T08:50:16;22.47;;;12.47;;
18376;SDS011;9315;52.624;13.544;2024-03-06T08:52:44;19.00;;;11.43;;
18376;SDS011;9315;52.624;13.544;2024-03-06T08:55:13;19.50;;;12.83;;
18376;SDS011;9315;52.624;13.544;2024-03-06T08:57:41;20.60;;;12.00;;
18376;SDS011;9315;52.624;13.544;2024-03-06T09:00:08;16.67;;;10.70;;
18376;SDS011;9315;52.624;13.544;2024-03-06T09:02:38;18.50;;;10.87;;
18376;SDS011;9315;52.624;13.544;2024-03-06T09:05:08;19.47;;;12.07;;
18376;SDS011;9315;52.624;13.544;2024-03-06T09:07:40;16.63;;;11.33;;
18376;SDS011;9315;52.624;13.544;2024-03-06T09:10:08;17.03;;;11.23;;
18376;SDS011;9315;52.624;13.544;2024-03-06T09:12:39;18.23;;;11.37;;
18376;SDS011;9315;52.624;13.544;2024-03-06T09:15:08;17.47;;;11.13;;
18376;SDS011;9315;52.624;13.544;2024-03-06T09:17:36;17.37;;;11.83;;
18376;SDS011;9315;52.624;13.544;2024-03-06T09:20:05;18.70;;;11.43;;
18376;SDS011;9315;52.624;13.544;2024-03-06T09:22:40;19.37;;;11.40;;
18376;SDS011;9315;52.624;13.544;2024-03-06T09:25:09;18.60;;;10.73;;
18376;SDS011;9315;52.624;13.544;2024-03-06T09:27:42;16.93;;;11.17;;
18376;SDS011;9315;52.624;13.544;2024-03-06T09:30:10;19.30;;;11.50;;
18376;SDS011;9315;52.624;13.544;2024-03-06T09:32:40;17.17;;;10.90;;
18376;SDS011;9315;52.624;13.544;2024-03-06T09:35:08;16.80;;;10.97;;
18376;SDS011;9315;52.624;13.544;2024-03-06T09:37:36;17.70;;;11.10;;
18376;SDS011;9315;52.624;13.544;2024-03-06T09:40:04;20.93;;;11.27;;
18376;SDS011;9315;52.624;13.544;2024-03-06T09:42:34;18.30;;;11.90;;
18376;SDS011;9315;52.624;13.544;2024-03-06T09:45:01;19.27;;;11.77;;
18376;SDS011;9315;52.624;13.544;2024-03-06T09:47:31;17.10;;;11.13;;
18376;SDS011;9315;52.624;13.544;2024-03-06T09:50:02;17.27;;;10.83;;
18376;SDS011;9315;52.624;13.544;2024-03-06T09:52:36;15.43;;;9.40;;
18376;SDS011;9315;52.624;13.544;2024-03-06T09:55:05;15.20;;;10.27;;
18376;SDS011;9315;52.624;13.544;2024-03-06T09:57:36;13.80;;;9.67;;
18376;SDS011;9315;52.624;13.544;2024-03-06T10:00:05;13.73;;;7.90;;
18376;SDS011;9315;52.624;13.544;2024-03-06T10:02:36;16.90;;;11.33;;
18376;SDS011;9315;52.624;13.544;2024-03-06T10:05:22;17.10;;;11.60;;
18376;SDS011;9315;52.624;13.544;2024-03-06T10:07:51;15.70;;;10.70;;
18376;SDS011;9315;52.624;13.544;2024-03-06T10:10:20;13.80;;;8.83;;
18376;SDS011;9315;52.624;13.544;2024-03-06T10:12:50;16.97;;;10.43;;
18376;SDS011;9315;52.624;13.544;2024-03-06T10:15:18;16.80;;;10.57;;
18376;SDS011;9315;52.624;13.544;2024-03-06T10:17:48;16.27;;;11.53;;
18376;SDS011;9315;52.624;13.544;2024-03-06T10:20:20;18.03;;;11.53;;
18376;SDS011;9315;52.624;13.544;2024-03-06T10:22:51;18.33;;;11.33;;
18376;SDS011;9315;52.624;13.544;2024-03-06T10:25:24;17.70;;;11.93;;
18376;SDS011;9315;52.624;13.544;2024-03-06T10:30:39;17.13;;;11.17;;
18376;SDS011;9315;52.624;13.544;2024-03-06T10:33:09;17.73;;;12.20;;
18376;SDS011;9315;52.624;13.544;2024-03-06T10:35:42;17.73;;;12.70;;
18376;SDS011;9315;52.624;13.544;2024-03-06T10:38:12;18.87;;;11.73;;
18376;SDS011;9315;52.624;13.544;2024-03-06T10:40:41;19.57;;;14.50;;
18376;SDS011;9315;52.624;13.544;2024-03-06T10:43:11;26.20;;;14.10;;
18376;SDS011;9315;52.624;13.544;2024-03-06T10:45:49;25.27;;;17.20;;
18376;SDS011;9315;52.624;13.544;2024-03-06T10:48:28;26.87;;;19.10;;
18376;SDS011;9315;52.624;13.544;2024-03-06T10:50:57;29.13;;;19.73;;
18376;SDS011;9315;52.624;13.544;2024-03-06T10:53:26;28.37;;;20.60;;
18376;SDS011;9315;52.624;13.544;2024-03-06T10:55:56;27.23;;;18.97;;
18376;SDS011;9315;52.624;13.544;2024-03-06T10:58:25;24.93;;;16.87;;
18376;SDS011;9315;52.624;13.544;2024-03-06T11:00:54;24.63;;;17.00;;
18376;SDS011;9315;52.624;13.544;2024-03-06T11:03:24;23.73;;;17.43;;
18376;SDS011;9315;52.624;13.544;2024-03-06T11:05:52;23.77;;;16.57;;
18376;SDS011;9315;52.624;13.544;2024-03-06T11:08:20;22.87;;;16.57;;
18376;SDS011;9315;52.624;13.544;2024-03-06T11:10:48;21.03;;;14.83;;
18376;SDS011;9315;52.624;13.544;2024-03-06T11:15:47;20.27;;;13.17;;
18376;SDS011;9315;52.624;13.544;2024-03-06T11:23:31;14.20;;;11.70;;
18376;SDS011;9315;52.624;13.544;2024-03-06T11:26:03;14.60;;;10.50;;
18376;SDS011;9315;52.624;13.544;2024-03-06T11:28:36;13.63;;;10.50;;
18376;SDS011;9315;52.624;13.544;2024-03-06T11:31:07;13.60;;;10.67;;
18376;SDS011;9315;52.624;13.544;2024-03-06T11:33:41;14.57;;;10.70;;
18376;SDS011;9315;52.624;13.544;2024-03-06T11:36:18;13.57;;;10.97;;
18376;SDS011;9315;52.624;13.544;2024-03-06T11:38:53;15.33;;;9.70;;
18376;SDS011;9315;52.624;13.544;2024-03-06T11:41:30;13.83;;;9.23;;
18376;SDS011;9315;52.624;13.544;2024-03-06T11:44:12;13.93;;;8.70;;
18376;SDS011;9315;52.624;13.544;2024-03-06T11:46:48;12.07;;;8.60;;
18376;SDS011;9315;52.624;13.544;2024-03-06T11:49:35;14.40;;;9.50;;
18376;SDS011;9315;52.624;13.544;2024-03-06T11:52:05;13.47;;;8.57;;
18376;SDS011;9315;52.624;13.544;2024-03-06T11:54:35;12.77;;;9.37;;
18376;SDS011;9315;52.624;13.544;2024-03-06T11:57:04;13.37;;;9.00;;
18376;SDS011;9315;52.624;13.544;2024-03-06T11:59:34;13.83;;;9.57;;
18376;SDS011;9315;52.624;13.544;2024-03-06T12:02:06;12.37;;;9.40;;
18376;SDS011;9315;52.624;13.544;2024-03-06T12:04:34;13.17;;;8.73;;
18376;SDS011;9315;52.624;13.544;2024-03-06T12:07:06;14.20;;;9.87;;
18376;SDS011;9315;52.624;13.544;2024-03-06T12:09:37;14.17;;;9.13;;
18376;SDS011;9315;52.624;13.544;2024-03-06T12:12:09;13.93;;;9.80;;
18376;SDS011;9315;52.624;13.544;2024-03-06T12:14:38;22.40;;;13.40;;
18376;SDS011;9315;52.624;13.544;2024-03-06T12:17:11;31.87;;;20.80;;
18376;SDS011;9315;52.624;13.544;2024-03-06T12:19:43;21.80;;;14.37;;
18376;SDS011;9315;52.624;13.544;2024-03-06T12:22:13;32.97;;;18.43;;
18376;SDS011;9315;52.624;13.544;2024-03-06T12:24:42;29.07;;;16.30;;
18376;SDS011;9315;52.624;13.544;2024-03-06T12:27:10;28.33;;;15.77;;
18376;SDS011;9315;52.624;13.544;2024-03-06T12:29:39;25.87;;;14.90;;
18376;SDS011;9315;52.624;13.544;2024-03-06T12:32:19;24.60;;;14.37;;
18376;SDS011;9315;52.624;13.544;2024-03-06T12:34:56;24.00;;;12.53;;
18376;SDS011;9315;52.624;13.544;2024-03-06T12:37:33;28.90;;;15.53;;
18376;SDS011;9315;52.624;13.544;2024-03-06T12:40:03;18.93;;;11.20;;
18376;SDS011;9315;52.624;13.544;2024-03-06T12:42:32;22.10;;;12.97;;
18376;SDS011;9315;52.624;13.544;2024-03-06T12:45:00;27.90;;;14.87;;
18376;SDS011;9315;52.624;13.544;2024-03-06T12:47:30;28.47;;;14.53;;
18376;SDS011;9315;52.624;13.544;2024-03-06T12:49:57;32.17;;;16.80;;
18376;SDS011;9315;52.624;13.544;2024-03-06T12:52:27;38.47;;;17.53;;
18376;SDS011;9315;52.624;13.544;2024-03-06T12:54:54;38.33;;;17.90;;
18376;SDS011;9315;52.624;13.544;2024-03-06T12:57:23;34.50;;;17.67;;
18376;SDS011;9315;52.624;13.544;2024-03-06T12:59:51;32.17;;;16.60;;
18376;SDS011;9315;52.624;13.544;2024-03-06T13:02:18;29.07;;;15.70;;
18376;SDS011;9315;52.624;13.544;2024-03-06T13:04:46;31.83;;;17.40;;
18376;SDS011;9315;52.624;13.544;2024-03-06T13:07:14;32.33;;;16.83;;
18376;SDS011;9315;52.624;13.544;2024-03-06T13:09:41;37.17;;;18.27;;
18376;SDS011;9315;52.624;13.544;2024-03-06T13:12:09;37.00;;;19.17;;
18376;SDS011;9315;52.624;13.544;2024-03-06T13:14:37;38.27;;;18.03;;
18376;SDS011;9315;52.624;13.544;2024-03-06T13:17:04;34.23;;;17.47;;
18376;SDS011;9315;52.624;13.544;2024-03-06T13:19:32;33.07;;;18.10;;
18376;SDS011;9315;52.624;13.544;2024-03-06T13:22:00;31.60;;;16.67;;
18376;SDS011;9315;52.624;13.544;2024-03-06T13:24:31;45.30;;;21.20;;
18376;SDS011;9315;52.624;13.544;2024-03-06T13:27:00;41.80;;;19.67;;
18376;SDS011;9315;52.624;13.544;2024-03-06T13:29:27;41.17;;;19.97;;
18376;SDS011;9315;52.624;13.544;2024-03-06T13:31:55;36.10;;;17.60;;
18376;SDS011;9315;52.624;13.544;2024-03-06T13:34:23;40.30;;;18.03;;
18376;SDS011;9315;52.624;13.544;2024-03-06T13:36:50;40.13;;;19.07;;
18376;SDS011;9315;52.624;13.544;2024-03-06T13:39:18;40.50;;;18.73;;
18376;SDS011;9315;52.624;13.544;2024-03-06T13:41:45;41.30;;;18.93;;
18376;SDS011;9315;52.624;13.544;2024-03-06T13:44:13;44.00;;;18.93;;
18376;SDS011;9315;52.624;13.544;2024-03-06T13:46:40;45.03;;;19.43;;
18376;SDS011;9315;52.624;13.544;2024-03-06T13:49:33;40.63;;;18.73;;
18376;SDS011;9315;52.624;13.544;2024-03-06T13:52:06;44.63;;;19.70;;
18376;SDS011;9315;52.624;13.544;2024-03-06T13:54:41;53.87;;;25.70;;
18376;SDS011;9315;52.624;13.544;2024-03-06T13:57:09;52.43;;;25.73;;
18376;SDS011;9315;52.624;13.544;2024-03-06T13:59:37;60.67;;;27.57;;
18376;SDS011;9315;52.624;13.544;2024-03-06T14:02:06;55.00;;;28.23;;
18376;SDS011;9315;52.624;13.544;2024-03-06T14:04:34;51.73;;;26.60;;
18376;SDS011;9315;52.624;13.544;2024-03-06T14:07:02;43.23;;;20.83;;
18376;SDS011;9315;52.624;13.544;2024-03-06T14:09:30;36.50;;;19.63;;
18376;SDS011;9315;52.624;13.544;2024-03-06T14:11:57;33.57;;;19.30;;
18376;SDS011;9315;52.624;13.544;2024-03-06T14:14:25;34.03;;;17.83;;
18376;SDS011;9315;52.624;13.544;2024-03-06T14:16:53;32.07;;;17.03;;
18376;SDS011;9315;52.624;13.544;2024-03-06T14:19:20;29.57;;;15.17;;
18376;SDS011;9315;52.624;13.544;2024-03-06T14:21:48;26.60;;;15.73;;
18376;SDS011;9315;52.624;13.544;2024-03-06T14:24:16;31.97;;;16.97;;
18376;SDS011;9315;52.624;13.544;2024-03-06T14:26:43;26.10;;;15.33;;
18376;SDS011;9315;52.624;13.544;2024-03-06T14:29:11;27.77;;;16.83;;
18376;SDS011;9315;52.624;13.544;2024-03-06T14:31:39;26.23;;;14.53;;
18376;SDS011;9315;52.624;13.544;2024-03-06T14:34:07;30.07;;;14.60;;
18376;SDS011;9315;52.624;13.544;2024-03-06T14:36:34;32.30;;;18.30;;
18376;SDS011;9315;52.624;13.544;2024-03-06T14:39:02;32.73;;;18.50;;
18376;SDS011;9315;52.624;13.544;2024-03-06T14:41:29;30.93;;;18.20;;
18376;SDS011;9315;52.624;13.544;2024-03-06T14:43:57;29.97;;;17.60;;
18376;SDS011;9315;52.624;13.544;2024-03-06T14:46:24;28.13;;;16.10;;